Time;durP1;ratioP1;P1;durP2;ratioP2;P2;SDS_P1;SDS_P2;PMS_P1;PMS_P2;Temp;Humidity;BMP_temperature;BMP_pressure;BME280_temperature;BME280_humidity;BME280_pressure;Samples;Min_cycle;Max_cycle;Signal;HPM_P1;HPM_P2
2021/05/04 00:01:28;;;;;;;5.00;2.35;;;10.10;82.20;;;;;;5038907;28;20026;-72
2021/05/04 00:03:54;;;;;;;4.80;2.35;;;10.20;81.80;;;;;;5039246;28;20029;-72
2021/05/04 00:06:20;;;;;;;6.30;2.20;;;10.30;81.00;;;;;;5039330;28;20368;-72
2021/05/04 00:08:45;;;;;;;4.25;2.08;;;10.30;80.70;;;;;;5039274;28;20087;-72
2021/05/04 00:11:11;;;;;;;3.90;2.42;;;10.40;80.40;;;;;;5039309;28;20096;-72
2021/05/04 00:13:37;;;;;;;5.97;2.15;;;10.40;80.00;;;;;;5038830;28;20030;-72
2021/05/04 00:16:03;;;;;;;6.53;2.28;;;10.50;79.80;;;;;;5038976;28;20109;-73
2021/05/04 00:18:30;;;;;;;5.90;2.00;;;10.50;80.50;;;;;;5038804;28;20022;-72
2021/05/04 00:20:56;;;;;;;6.00;1.88;;;10.60;80.90;;;;;;5038800;28;20022;-72
2021/05/04 00:23:21;;;;;;;4.53;2.03;;;10.50;81.80;;;;;;5038835;28;20416;-72
2021/05/04 00:25:47;;;;;;;5.30;2.58;;;10.50;79.90;;;;;;5038537;28;20041;-72
2021/05/04 00:28:13;;;;;;;6.00;2.38;;;10.40;79.20;;;;;;5038643;28;20022;-72
2021/05/04 00:30:39;;;;;;;3.65;2.15;;;10.40;79.40;;;;;;5038814;28;20022;-72
2021/05/04 00:33:04;;;;;;;3.17;1.98;;;10.30;79.10;;;;;;5038869;28;20021;-72
2021/05/04 00:35:30;;;;;;;3.00;2.33;;;10.30;79.50;;;;;;5038386;28;20029;-72
2021/05/04 00:37:56;;;;;;;2.88;2.15;;;10.30;79.50;;;;;;5038418;28;20032;-72
2021/05/04 00:40:22;;;;;;;4.10;2.50;;;10.30;79.70;;;;;;5038661;28;20026;-72
2021/05/04 00:42:48;;;;;;;4.68;2.15;;;10.30;80.20;;;;;;5038662;28;20341;-72
2021/05/04 00:45:14;;;;;;;5.10;2.03;;;10.30;80.60;;;;;;5038438;28;20053;-72
2021/05/04 00:47:40;;;;;;;9.27;2.17;;;10.30;80.70;;;;;;5038214;28;20036;-72
2021/05/04 00:50:06;;;;;;;3.78;1.98;;;10.30;82.10;;;;;;5038188;28;20100;-72
2021/05/04 00:52:33;;;;;;;2.83;1.58;;;10.30;82.40;;;;;;5038053;28;20030;-72
2021/05/04 00:54:58;;;;;;;1.95;1.25;;;10.40;82.00;;;;;;5038350;28;20298;-72
2021/05/04 00:57:25;;;;;;;3.35;1.48;;;10.40;82.90;;;;;;5038365;28;20084;-72
2021/05/04 00:59:51;;;;;;;5.70;2.50;;;10.50;84.00;;;;;;5038252;28;20037;-72
2021/05/04 01:02:18;;;;;;;3.72;2.05;;;10.40;82.30;;;;;;5038329;28;20108;-72
2021/05/04 01:04:46;;;;;;;3.10;2.03;;;10.40;80.70;;;;;;5038082;28;20034;-72
2021/05/04 01:07:11;;;;;;;2.85;1.67;;;10.40;81.30;;;;;;5038192;28;20087;-72
2021/05/04 01:09:37;;;;;;;3.90;1.95;;;10.40;81.90;;;;;;5038105;28;20025;-72
2021/05/04 01:12:04;;;;;;;3.45;1.40;;;10.40;81.30;;;;;;5038099;28;20103;-72
2021/05/04 01:14:29;;;;;;;3.42;2.17;;;10.30;83.60;;;;;;5036789;28;20026;-72
2021/05/04 01:16:55;;;;;;;4.20;2.30;;;10.20;83.60;;;;;;5037686;28;20060;-72
2021/05/04 01:19:22;;;;;;;6.45;3.30;;;9.80;84.30;;;;;;5037937;28;20030;-72
2021/05/04 01:21:49;;;;;;;3.90;3.00;;;9.50;85.40;;;;;;5037615;28;20037;-72
2021/05/04 01:24:15;;;;;;;4.97;2.90;;;9.30;86.50;;;;;;5037324;28;20041;-72
2021/05/04 01:26:42;;;;;;;5.10;3.05;;;9.10;87.30;;;;;;5037486;28;20026;-72
2021/05/04 01:29:09;;;;;;;4.43;2.58;;;9.00;87.30;;;;;;5037464;28;20426;-72
2021/05/04 01:31:34;;;;;;;3.42;2.22;;;9.10;87.30;;;;;;5037746;28;20084;-72
2021/05/04 01:34:00;;;;;;;5.80;3.15;;;9.10;87.80;;;;;;5037340;28;20033;-72
2021/05/04 01:36:26;;;;;;;6.60;2.97;;;8.90;87.40;;;;;;5037604;28;20030;-72
2021/05/04 01:38:52;;;;;;;3.38;2.80;;;8.90;87.60;;;;;;5037592;28;20025;-72
2021/05/04 01:41:18;;;;;;;4.10;3.10;;;8.80;87.00;;;;;;5037306;28;20413;-72
2021/05/04 01:43:43;;;;;;;3.88;3.05;;;8.80;87.10;;;;;;5037078;28;20036;-72
2021/05/04 01:46:09;;;;;;;4.78;2.70;;;8.90;87.30;;;;;;5037472;28;20076;-72
2021/05/04 01:48:35;;;;;;;5.97;2.72;;;8.90;87.30;;;;;;5037421;28;20321;-72
2021/05/04 01:51:01;;;;;;;4.25;2.88;;;8.80;87.60;;;;;;5037183;28;20017;-72
2021/05/04 01:53:27;;;;;;;3.83;3.47;;;8.70;85.90;;;;;;5037655;28;20033;-72
2021/05/04 01:55:53;;;;;;;4.75;3.38;;;8.60;86.40;;;;;;5037338;28;20436;-72
2021/05/04 01:58:19;;;;;;;5.13;3.20;;;8.50;87.00;;;;;;5036967;28;20022;-72
2021/05/04 02:00:44;;;;;;;6.18;3.28;;;8.50;87.30;;;;;;5037323;28;20030;-72
2021/05/04 02:03:10;;;;;;;4.38;3.33;;;8.50;87.30;;;;;;5037222;28;20372;-72
2021/05/04 02:05:36;;;;;;;5.20;3.97;;;8.50;86.60;;;;;;5037026;28;20025;-72
2021/05/04 02:08:02;;;;;;;6.10;4.20;;;8.50;86.90;;;;;;5037162;28;20037;-72
2021/05/04 02:10:27;;;;;;;5.93;4.20;;;8.50;87.00;;;;;;5037098;28;20441;-72
2021/05/04 02:12:53;;;;;;;6.53;4.25;;;8.50;87.10;;;;;;5037113;28;20083;-72
2021/05/04 02:15:19;;;;;;;6.82;5.03;;;8.50;87.00;;;;;;5036652;28;20038;-72
2021/05/04 02:17:45;;;;;;;5.25;4.60;;;8.40;87.00;;;;;;5036477;28;20107;-72
2021/05/04 02:20:11;;;;;;;6.68;4.70;;;8.60;86.60;;;;;;5036655;28;20025;-72
2021/05/04 02:22:37;;;;;;;5.75;4.50;;;8.60;86.20;;;;;;5036896;28;20025;-72
2021/05/04 02:25:04;;;;;;;6.57;5.20;;;8.70;86.10;;;;;;5036541;28;20038;-72
2021/05/04 02:27:30;;;;;;;5.97;4.53;;;8.70;86.30;;;;;;5036578;28;20020;-72
2021/05/04 02:29:56;;;;;;;5.07;4.35;;;8.60;86.60;;;;;;5036876;28;20105;-72
2021/05/04 02:32:22;;;;;;;4.15;2.70;;;8.60;86.70;;;;;;5036630;28;20025;-72
2021/05/04 02:34:47;;;;;;;4.85;3.60;;;8.50;87.20;;;;;;5036715;28;20037;-72
2021/05/04 02:37:13;;;;;;;5.53;3.50;;;8.40;87.40;;;;;;5036768;28;20041;-72
2021/05/04 02:39:39;;;;;;;4.78;3.30;;;8.30;87.80;;;;;;5036782;28;20324;-72
2021/05/04 02:42:06;;;;;;;7.07;3.58;;;8.30;88.70;;;;;;5036810;28;20030;-72
2021/05/04 02:44:31;;;;;;;6.97;3.47;;;8.20;88.70;;;;;;5036626;28;20040;-72
2021/05/04 02:46:58;;;;;;;4.50;3.47;;;8.10;89.00;;;;;;5036427;28;20323;-72
2021/05/04 02:49:24;;;;;;;4.50;4.05;;;8.00;89.10;;;;;;5036411;28;20033;-72
2021/05/04 02:51:50;;;;;;;6.05;3.70;;;8.00;89.20;;;;;;5036690;28;20101;-72
2021/05/04 02:54:16;;;;;;;6.18;3.65;;;7.90;88.90;;;;;;5036313;28;20414;-72
2021/05/04 02:56:41;;;;;;;4.22;3.17;;;7.80;88.80;;;;;;5036626;28;20108;-72
2021/05/04 02:59:07;;;;;;;6.60;4.07;;;7.80;88.70;;;;;;5036356;28;20333;-72
2021/05/04 03:01:33;;;;;;;4.88;3.63;;;7.80;89.00;;;;;;5036648;28;20056;-72
2021/05/04 03:03:58;;;;;;;4.90;3.13;;;7.80;88.80;;;;;;5036135;28;20116;-72
2021/05/04 03:06:24;;;;;;;4.93;4.18;;;7.70;89.60;;;;;;5036252;28;20033;-72
2021/05/04 03:08:50;;;;;;;6.20;3.70;;;7.70;89.40;;;;;;5036199;28;20017;-72
2021/05/04 03:11:15;;;;;;;5.07;3.78;;;7.70;89.30;;;;;;5036559;28;20032;-72
2021/05/04 03:13:41;;;;;;;4.68;4.25;;;7.80;89.90;;;;;;5036145;28;20022;-72
2021/05/04 03:16:07;;;;;;;5.03;3.92;;;7.80;89.90;;;;;;5035983;28;20033;-72
2021/05/04 03:18:33;;;;;;;5.63;4.47;;;7.90;89.60;;;;;;5036519;28;20033;-72
2021/05/04 03:20:58;;;;;;;6.30;4.25;;;7.90;88.80;;;;;;5036430;28;20330;-72
2021/05/04 03:23:24;;;;;;;5.20;3.80;;;7.90;88.60;;;;;;5036379;28;20036;-72
2021/05/04 03:25:51;;;;;;;4.80;3.40;;;7.90;88.60;;;;;;5035983;28;20057;-72
2021/05/04 03:28:17;;;;;;;6.50;3.63;;;7.90;88.40;;;;;;5036332;28;20026;-72
2021/05/04 03:30:43;;;;;;;4.15;3.25;;;8.00;88.80;;;;;;5036290;28;20302;-72
2021/05/04 03:33:09;;;;;;;7.25;3.10;;;8.00;88.10;;;;;;5036316;28;20028;-72
2021/05/04 03:35:35;;;;;;;3.83;2.97;;;8.00;88.00;;;;;;5036235;28;20402;-72
2021/05/04 03:38:02;;;;;;;4.28;2.40;;;7.90;89.20;;;;;;5038581;28;20071;-72
2021/05/04 03:40:28;;;;;;;2.85;2.30;;;7.90;89.70;;;;;;5039773;28;20032;-72
2021/05/04 03:42:54;;;;;;;4.07;2.72;;;7.80;89.30;;;;;;5039849;28;20017;-73
2021/05/04 03:45:20;;;;;;;4.28;2.53;;;7.90;89.40;;;;;;5039425;28;20036;-75
2021/05/04 03:47:46;;;;;;;5.47;2.47;;;7.80;88.80;;;;;;5039395;28;20092;-72
2021/05/04 03:50:15;;;;;;;4.63;2.33;;;7.80;88.20;;;;;;5039360;28;20113;-72
2021/05/04 03:52:41;;;;;;;3.28;2.30;;;7.80;88.70;;;;;;5039351;28;20049;-72
2021/05/04 03:55:07;;;;;;;4.70;2.50;;;7.80;89.10;;;;;;5039163;28;20075;-72
2021/05/04 03:57:33;;;;;;;3.47;2.20;;;7.80;89.30;;;;;;5039194;28;20468;-72
2021/05/04 03:59:59;;;;;;;4.30;3.33;;;7.80;89.00;;;;;;5039125;28;20061;-72
2021/05/04 04:02:25;;;;;;;7.50;3.05;;;7.80;88.30;;;;;;5039504;28;20094;-72
2021/05/04 04:04:51;;;;;;;4.32;3.10;;;7.90;87.70;;;;;;5039270;28;20397;-72
2021/05/04 04:07:17;;;;;;;5.47;2.78;;;7.90;87.00;;;;;;5039035;28;20148;-72
2021/05/04 04:09:42;;;;;;;5.47;2.70;;;7.90;87.40;;;;;;5039285;28;20100;-72
2021/05/04 04:12:08;;;;;;;4.78;3.45;;;7.90;87.90;;;;;;5039336;28;20032;-72
2021/05/04 04:14:34;;;;;;;4.32;3.30;;;7.90;88.60;;;;;;5039146;28;20421;-72
2021/05/04 04:17:00;;;;;;;3.95;3.03;;;7.90;88.70;;;;;;5038871;28;20077;-72
2021/05/04 04:19:26;;;;;;;4.20;3.20;;;7.90;89.60;;;;;;5038151;28;20029;-72
2021/05/04 04:21:52;;;;;;;5.78;3.20;;;8.00;90.00;;;;;;5038799;28;20040;-72
2021/05/04 04:24:18;;;;;;;3.47;2.75;;;8.00;89.30;;;;;;5038997;28;20040;-72
2021/05/04 04:26:44;;;;;;;5.05;2.90;;;8.10;89.40;;;;;;5039044;28;20029;-72
2021/05/04 04:29:09;;;;;;;4.05;2.63;;;8.10;90.20;;;;;;5038650;28;20410;-72
2021/05/04 04:31:36;;;;;;;4.65;3.00;;;8.20;90.50;;;;;;5038943;28;20021;-72
2021/05/04 04:34:02;;;;;;;4.15;3.08;;;8.20;89.20;;;;;;5038771;28;20029;-72
2021/05/04 04:36:27;;;;;;;4.70;2.42;;;8.30;88.70;;;;;;5038785;28;20033;-72
2021/05/04 04:38:53;;;;;;;5.90;3.38;;;8.40;89.90;;;;;;5038471;28;20026;-72
2021/05/04 04:41:19;;;;;;;5.72;3.60;;;8.50;89.60;;;;;;5038700;28;20025;-72
2021/05/04 04:43:45;;;;;;;4.93;4.43;;;8.50;89.40;;;;;;5038620;28;20026;-72
2021/05/04 04:46:10;;;;;;;3.72;3.25;;;8.60;89.10;;;;;;5038559;28;20373;-72
2021/05/04 04:48:36;;;;;;;6.90;2.60;;;8.60;89.50;;;;;;5038442;28;20405;-72
2021/05/04 04:51:02;;;;;;;6.28;2.70;;;8.70;89.50;;;;;;5038547;28;20029;-72
2021/05/04 04:53:28;;;;;;;5.10;2.97;;;8.80;88.80;;;;;;5038471;28;20424;-72
2021/05/04 04:55:53;;;;;;;6.20;3.63;;;8.90;88.70;;;;;;5038119;28;20413;-72
2021/05/04 04:58:19;;;;;;;7.05;4.00;;;9.00;89.00;;;;;;5038064;28;20032;-72
2021/05/04 05:00:45;;;;;;;3.55;3.25;;;9.10;89.00;;;;;;5038048;28;20112;-72
2021/05/04 05:03:11;;;;;;;4.45;2.50;;;9.20;89.00;;;;;;5037971;28;20103;-74
2021/05/04 05:05:36;;;;;;;3.03;2.45;;;9.30;88.40;;;;;;5037784;28;20083;-75
2021/05/04 05:08:02;;;;;;;3.28;2.03;;;9.30;87.60;;;;;;5037898;28;20024;-75
2021/05/04 05:10:28;;;;;;;3.90;1.75;;;9.40;86.50;;;;;;5037799;28;20029;-75
2021/05/04 05:12:54;;;;;;;2.35;1.90;;;9.50;87.30;;;;;;5038136;28;20104;-75
2021/05/04 05:15:20;;;;;;;4.32;1.85;;;9.50;86.10;;;;;;5037681;28;20425;-75
2021/05/04 05:17:46;;;;;;;2.53;1.52;;;9.60;87.00;;;;;;5037665;28;20052;-75
2021/05/04 05:20:12;;;;;;;4.82;1.35;;;9.60;86.00;;;;;;5037941;28;20029;-75
2021/05/04 05:22:38;;;;;;;3.78;1.77;;;9.80;85.90;;;;;;5037894;28;20042;-75
2021/05/04 05:25:05;;;;;;;2.85;1.60;;;9.90;85.10;;;;;;5037710;28;20377;-75
2021/05/04 05:27:31;;;;;;;3.33;1.75;;;10.10;85.10;;;;;;5037767;28;20036;-75
2021/05/04 05:29:57;;;;;;;5.93;1.70;;;10.20;85.30;;;;;;5037783;28;20321;-75
2021/05/04 05:32:23;;;;;;;3.03;1.40;;;10.40;84.40;;;;;;5037828;28;20321;-72
2021/05/04 05:34:49;;;;;;;1.92;1.30;;;10.70;84.80;;;;;;5037346;28;20030;-72
2021/05/04 05:37:15;;;;;;;2.65;1.70;;;10.90;86.70;;;;;;5037652;28;20036;-72
2021/05/04 05:39:43;;;;;;;3.28;2.10;;;11.10;82.20;;;;;;5037585;28;20317;-72
2021/05/04 05:42:10;;;;;;;7.88;2.53;;;11.20;83.30;;;;;;5037302;28;20029;-72
2021/05/04 05:44:37;;;;;;;3.97;2.13;;;11.40;84.00;;;;;;5037439;28;20030;-72
2021/05/04 05:47:03;;;;;;;7.68;3.10;;;11.50;81.30;;;;;;5037480;28;20421;-72
2021/05/04 05:49:29;;;;;;;4.40;3.22;;;11.60;79.60;;;;;;5037451;28;20045;-72
2021/05/04 05:51:55;;;;;;;4.93;2.90;;;11.60;77.60;;;;;;5037153;28;20413;-72
2021/05/04 05:54:21;;;;;;;5.57;2.95;;;11.60;77.40;;;;;;5037454;28;20029;-72
2021/05/04 05:56:47;;;;;;;4.50;2.80;;;11.80;78.60;;;;;;5037302;28;20449;-72
2021/05/04 05:59:13;;;;;;;4.32;2.95;;;11.90;78.20;;;;;;5036814;28;20033;-72
2021/05/04 06:01:40;;;;;;;3.72;3.08;;;12.00;79.90;;;;;;5036722;28;20037;-72
2021/05/04 06:04:06;;;;;;;3.05;2.30;;;12.10;80.60;;;;;;5037074;28;20029;-72
2021/05/04 06:06:32;;;;;;;2.67;2.45;;;12.20;82.40;;;;;;5037154;28;20021;-72
2021/05/04 06:08:58;;;;;;;5.00;2.63;;;12.40;82.20;;;;;;5036842;28;20037;-72
2021/05/04 06:11:23;;;;;;;3.72;2.28;;;12.50;80.40;;;;;;5037136;28;20028;-72
2021/05/04 06:13:49;;;;;;;3.83;2.13;;;12.70;81.30;;;;;;5036699;28;20033;-72
2021/05/04 06:16:15;;;;;;;3.97;2.35;;;13.00;77.20;;;;;;5036587;28;20021;-73
2021/05/04 06:18:40;;;;;;;3.22;2.22;;;13.10;75.00;;;;;;5036757;28;20036;-73
2021/05/04 06:21:06;;;;;;;4.18;2.10;;;13.30;74.60;;;;;;5037053;28;20021;-72
2021/05/04 06:23:32;;;;;;;3.40;2.53;;;13.60;74.60;;;;;;5036737;28;20406;-72
2021/05/04 06:25:58;;;;;;;5.10;2.60;;;13.70;73.00;;;;;;5036557;28;20048;-72
2021/05/04 06:28:23;;;;;;;3.35;2.05;;;13.80;71.10;;;;;;5036655;28;20075;-72
2021/05/04 06:30:49;;;;;;;4.07;1.80;;;13.70;70.40;;;;;;5036615;28;20050;-72
2021/05/04 06:33:15;;;;;;;5.35;2.63;;;13.60;74.30;;;;;;5036883;28;20104;-72
2021/05/04 06:35:43;;;;;;;4.43;2.72;;;13.60;74.30;;;;;;5036978;28;20488;-72
2021/05/04 06:38:13;;;;;;;4.05;2.58;;;13.60;75.40;;;;;;5036495;28;20033;-72
2021/05/04 06:40:43;;;;;;;2.53;2.13;;;13.60;74.50;;;;;;5036438;28;20029;-73
2021/05/04 06:43:09;;;;;;;2.88;2.13;;;13.50;73.20;;;;;;5036768;28;20029;-72
2021/05/04 06:45:35;;;;;;;3.70;2.30;;;13.50;74.10;;;;;;5036291;28;20025;-72
2021/05/04 06:48:01;;;;;;;2.65;2.17;;;13.60;74.40;;;;;;5036766;28;20049;-72
2021/05/04 06:50:27;;;;;;;7.45;2.22;;;13.60;75.70;;;;;;5036753;28;20433;-72
2021/05/04 06:52:53;;;;;;;3.60;2.45;;;13.90;75.70;;;;;;5036605;28;20040;-72
2021/05/04 06:55:19;;;;;;;3.20;2.30;;;14.80;73.20;;;;;;5036277;28;20321;-72
2021/05/04 06:57:45;;;;;;;3.50;2.33;;;15.70;71.40;;;;;;5036646;28;20088;-72
2021/05/04 07:00:11;;;;;;;4.22;2.53;;;16.60;68.20;;;;;;5036316;28;20033;-72
2021/05/04 07:02:37;;;;;;;5.03;2.17;;;17.50;64.80;;;;;;5036366;28;20061;-72
2021/05/04 07:05:07;;;;;;;6.50;2.45;;;18.10;63.70;;;;;;5036187;28;20068;-70
2021/05/04 07:07:33;;;;;;;3.08;2.42;;;18.80;59.00;;;;;;5036562;28;20025;-70
2021/05/04 07:09:59;;;;;;;2.78;2.00;;;18.80;59.80;;;;;;5036523;28;20021;-70
2021/05/04 07:12:25;;;;;;;3.67;2.30;;;19.30;58.60;;;;;;5038061;28;20021;-70
2021/05/04 07:14:51;;;;;;;3.03;2.13;;;19.50;58.20;;;;;;5040198;28;20431;-70
2021/05/04 07:17:16;;;;;;;3.38;2.30;;;20.00;56.90;;;;;;5039752;28;20514;-70
2021/05/04 07:19:42;;;;;;;3.45;2.40;;;20.30;56.50;;;;;;5039921;28;20030;-70
2021/05/04 07:22:10;;;;;;;4.28;2.67;;;20.30;57.40;;;;;;5040234;28;20053;-70
2021/05/04 07:24:37;;;;;;;3.90;2.25;;;19.80;56.70;;;;;;5040211;28;20048;-73
2021/05/04 07:27:03;;;;;;;4.20;2.00;;;19.50;57.70;;;;;;5040109;28;20322;-73
2021/05/04 07:29:28;;;;;;;3.10;2.03;;;19.70;53.50;;;;;;5040078;28;20017;-73
2021/05/04 07:31:54;;;;;;;5.78;2.10;;;19.70;57.00;;;;;;5040028;28;20291;-73
2021/05/04 07:34:20;;;;;;;2.92;2.10;;;19.40;58.00;;;;;;5039903;28;20105;-73
2021/05/04 07:36:46;;;;;;;3.95;2.75;;;18.80;59.20;;;;;;5039951;28;20461;-72
2021/05/04 07:39:12;;;;;;;8.27;2.40;;;18.20;60.60;;;;;;5039554;28;20041;-73
2021/05/04 07:41:37;;;;;;;4.53;2.80;;;17.70;62.00;;;;;;5039889;28;20033;-71
2021/05/04 07:44:03;;;;;;;4.28;2.53;;;17.70;61.90;;;;;;5039655;28;20032;-72
2021/05/04 07:46:29;;;;;;;3.45;2.67;;;17.60;61.70;;;;;;5039746;28;20144;-71
2021/05/04 07:48:56;;;;;;;5.72;2.42;;;17.80;61.90;;;;;;5039350;28;20322;-73
2021/05/04 07:51:22;;;;;;;4.78;2.35;;;17.80;59.70;;;;;;5039364;28;20025;-73
2021/05/04 07:53:48;;;;;;;3.10;1.80;;;17.50;60.50;;;;;;5039497;28;20034;-73
2021/05/04 07:56:14;;;;;;;4.68;2.90;;;17.70;60.20;;;;;;5039564;28;20350;-73
2021/05/04 07:58:40;;;;;;;4.35;1.92;;;17.80;57.50;;;;;;5039561;28;20030;-73
2021/05/04 08:01:07;;;;;;;2.58;1.90;;;17.80;59.90;;;;;;5039521;28;20377;-73
2021/05/04 08:03:36;;;;;;;3.45;2.22;;;17.70;63.60;;;;;;5039347;28;20325;-71
2021/05/04 08:06:02;;;;;;;3.60;2.72;;;17.40;63.50;;;;;;5039267;28;20026;-73
2021/05/04 08:08:28;;;;;;;3.80;2.60;;;17.10;65.10;;;;;;5039047;28;20182;-73
2021/05/04 08:10:53;;;;;;;7.30;2.92;;;16.70;69.00;;;;;;5038995;28;20013;-73
2021/05/04 08:13:21;;;;;;;4.47;2.95;;;16.50;66.50;;;;;;5038992;28;20029;-72
2021/05/04 08:15:49;;;;;;;4.18;3.45;;;16.50;67.20;;;;;;5039160;28;20032;-71
2021/05/04 08:18:16;;;;;;;6.60;3.40;;;16.60;67.80;;;;;;5038715;28;20050;-70
2021/05/04 08:20:53;;;;;;;5.50;3.70;;;16.70;66.50;;;;;;5038866;28;20414;-72
2021/05/04 08:23:23;;;;;;;5.28;3.25;;;16.80;65.80;;;;;;5038709;28;20041;-72
2021/05/04 08:25:48;;;;;;;6.10;3.70;;;16.80;66.20;;;;;;5038637;28;20033;-72
2021/05/04 08:28:14;;;;;;;3.85;3.42;;;16.50;65.60;;;;;;5038699;28;20112;-72
2021/05/04 08:30:40;;;;;;;4.25;3.50;;;16.80;66.60;;;;;;5038606;28;20051;-70
2021/05/04 08:33:05;;;;;;;5.65;3.83;;;17.80;63.40;;;;;;5038897;28;20017;-70
2021/05/04 08:35:31;;;;;;;4.65;3.00;;;18.80;61.40;;;;;;5038492;28;20364;-73
2021/05/04 08:37:59;;;;;;;5.60;2.65;;;19.60;62.00;;;;;;5038830;28;20040;-71
2021/05/04 08:40:25;;;;;;;4.75;2.20;;;20.30;55.20;;;;;;5038693;28;20033;-71
2021/05/04 08:42:52;;;;;;;5.45;2.30;;;20.70;53.50;;;;;;5038753;28;20052;-71
2021/05/04 08:45:18;;;;;;;3.67;2.33;;;21.10;55.30;;;;;;5038171;28;20030;-71
2021/05/04 08:47:50;;;;;;;7.55;2.53;;;21.60;53.90;;;;;;5038611;28;20113;-71
2021/05/04 08:50:21;;;;;;;4.03;2.85;;;22.00;52.70;;;;;;5038309;28;20021;-71
2021/05/04 08:52:48;;;;;;;4.80;2.53;;;22.40;53.50;;;;;;5038217;28;20418;-71
2021/05/04 08:55:15;;;;;;;5.07;2.45;;;22.80;52.50;;;;;;5038364;28;20052;-71
2021/05/04 08:57:42;;;;;;;3.80;1.80;;;22.80;49.20;;;;;;5038378;28;20029;-71
2021/05/04 09:00:10;;;;;;;2.58;1.90;;;22.90;45.70;;;;;;5038069;28;20082;-71
2021/05/04 09:03:14;;;;;;;2.42;1.30;;;22.70;50.20;;;;;;5038377;28;20030;-71
2021/05/04 09:06:11;;;;;;;5.13;1.60;;;23.00;48.50;;;;;;5037827;28;20037;-71
2021/05/04 09:14:29;;;;;;;5.18;2.30;;;22.20;51.80;;;;;;5038072;28;20033;-70
2021/05/04 09:19:41;;;;;;;4.55;2.13;;;19.40;55.70;;;;;;5037796;28;20032;-70
2021/05/04 09:22:07;;;;;;;2.78;2.10;;;19.20;56.20;;;;;;5037679;28;20030;-72
2021/05/04 09:24:41;;;;;;;3.53;2.70;;;19.90;53.60;;;;;;5037953;28;20037;-72
2021/05/04 09:27:09;;;;;;;3.50;2.50;;;20.60;54.20;;;;;;5037825;28;20033;-70
2021/05/04 09:29:40;;;;;;;9.48;3.55;;;21.20;54.90;;;;;;5037528;28;20430;-70
2021/05/04 09:32:11;;;;;;;6.47;3.08;;;21.60;51.10;;;;;;5037835;28;20056;-70
2021/05/04 09:34:51;;;;;;;6.75;3.45;;;22.00;49.70;;;;;;5036877;28;20029;-70
2021/05/04 09:37:33;;;;;;;4.43;3.35;;;22.30;50.40;;;;;;5037676;28;20295;-71
2021/05/04 09:40:20;;;;;;;4.68;2.95;;;22.20;54.60;;;;;;5037593;28;20056;-70
2021/05/04 09:42:46;;;;;;;5.50;3.33;;;22.40;53.40;;;;;;5037591;28;20124;-70
2021/05/04 09:45:26;;;;;;;4.93;3.65;;;22.80;52.20;;;;;;5037126;28;20127;-72
2021/05/04 09:48:11;;;;;;;5.20;3.30;;;23.00;51.40;;;;;;5037471;28;20017;-72
2021/05/04 09:51:08;;;;;;;5.07;3.08;;;23.10;53.20;;;;;;5037516;28;20137;-72
2021/05/04 09:56:07;;;;;;;4.70;3.30;;;23.40;49.20;;;;;;5037115;28;20033;-72
2021/05/04 09:58:34;;;;;;;5.82;4.43;;;23.50;49.80;;;;;;5037296;28;20030;-72
2021/05/04 10:01:04;;;;;;;4.53;3.42;;;23.30;52.20;;;;;;5037295;28;20021;-72
2021/05/04 10:03:30;;;;;;;5.63;3.90;;;23.40;51.90;;;;;;5037192;28;20037;-72
2021/05/04 10:06:00;;;;;;;6.88;4.18;;;22.80;54.90;;;;;;5037144;28;20025;-72
2021/05/04 10:08:28;;;;;;;4.43;4.03;;;22.50;54.60;;;;;;5037181;28;20049;-72
2021/05/04 10:10:57;;;;;;;8.18;4.97;;;22.20;55.90;;;;;;5036831;28;20025;-72
2021/05/04 10:13:23;;;;;;;9.65;5.03;;;22.10;54.00;;;;;;5036440;28;20025;-72
2021/05/04 10:15:50;;;;;;;6.28;4.88;;;21.20;55.80;;;;;;5040986;28;20509;-72
2021/05/04 10:18:18;;;;;;;7.72;5.13;;;20.70;58.70;;;;;;5047981;28;20086;-72
2021/05/04 10:20:44;;;;;;;6.22;4.82;;;20.30;58.90;;;;;;5056667;28;20028;-72
2021/05/04 10:23:14;;;;;;;10.88;5.43;;;21.00;57.40;;;;;;5056716;28;20029;-72
2021/05/04 10:25:41;;;;;;;6.80;5.05;;;20.90;54.60;;;;;;5056391;28;20041;-72
2021/05/04 10:28:09;;;;;;;5.75;4.60;;;20.00;56.40;;;;;;5056829;28;20096;-72
2021/05/04 10:30:35;;;;;;;7.78;5.22;;;19.20;59.80;;;;;;5056819;28;20025;-72
2021/05/04 10:33:08;;;;;;;9.90;5.07;;;18.40;61.90;;;;;;5056827;28;20017;-72
2021/05/04 10:35:40;;;;;;;9.23;5.15;;;18.10;63.10;;;;;;5056482;28;20491;-72
2021/05/04 10:38:11;;;;;;;6.88;5.13;;;17.90;63.50;;;;;;5056480;28;20476;-72
2021/05/04 10:40:41;;;;;;;9.18;4.68;;;18.30;60.80;;;;;;5056694;28;20119;-72
2021/05/04 10:43:21;;;;;;;5.78;4.40;;;18.90;60.80;;;;;;5056405;28;20078;-72
2021/05/04 10:45:49;;;;;;;7.05;4.55;;;19.50;59.80;;;;;;5057044;28;20107;-72
2021/05/04 10:48:15;;;;;;;8.98;4.43;;;20.00;58.70;;;;;;5060470;28;20029;-72
2021/05/04 10:50:51;;;;;;;6.43;4.53;;;20.20;57.30;;;;;;5060404;28;20025;-72
2021/05/04 10:53:19;;;;;;;6.45;4.60;;;19.60;59.70;;;;;;5060322;28;20033;-72
2021/05/04 10:55:54;;;;;;;5.80;5.05;;;19.00;59.90;;;;;;5060577;28;20063;-72
2021/05/04 10:58:23;;;;;;;7.23;4.70;;;18.50;61.00;;;;;;5060620;28;20037;-72
2021/05/04 11:00:49;;;;;;;5.65;4.43;;;18.00;63.10;;;;;;5060584;28;20108;-72
2021/05/04 11:03:30;;;;;;;6.60;4.85;;;17.60;63.40;;;;;;5059177;28;20036;-72
2021/05/04 11:05:57;;;;;;;5.97;4.10;;;18.60;65.40;;;;;;5060029;28;20432;-72
2021/05/04 11:08:22;;;;;;;8.52;5.38;;;18.70;61.70;;;;;;5060209;28;20471;-72
2021/05/04 11:11:26;;;;;;;17.33;6.43;;;18.60;59.70;;;;;;5060418;28;20021;-72
2021/05/04 11:13:57;;;;;;;6.57;4.68;;;18.30;62.60;;;;;;5060300;28;20040;-72
2021/05/04 11:16:36;;;;;;;6.97;5.00;;;18.00;62.00;;;;;;5060062;28;20138;-72
2021/05/04 11:19:04;;;;;;;5.78;4.47;;;17.60;61.40;;;;;;5060284;28;20032;-72
2021/05/04 11:22:02;;;;;;;5.82;4.90;;;17.40;64.80;;;;;;5059858;28;20100;-72
2021/05/04 11:24:36;;;;;;;7.18;4.65;;;17.50;64.30;;;;;;5060198;28;20044;-72
2021/05/04 11:27:05;;;;;;;7.97;4.82;;;17.40;63.80;;;;;;5059809;28;20370;-72
2021/05/04 11:29:30;;;;;;;6.53;5.05;;;17.30;63.50;;;;;;5060079;28;20056;-72
2021/05/04 11:32:37;;;;;;;5.80;4.70;;;17.30;64.40;;;;;;5059707;28;20425;-72
2021/05/04 11:35:05;;;;;;;9.57;4.20;;;17.20;66.00;;;;;;5059649;28;20095;-72
2021/05/04 11:37:36;;;;;;;6.00;5.07;;;17.00;65.60;;;;;;5059555;28;20052;-72
2021/05/04 11:40:13;;;;;;;9.90;5.05;;;16.90;62.90;;;;;;5059851;28;20053;-72
2021/05/04 11:42:45;;;;;;;9.57;4.70;;;16.70;65.00;;;;;;5059523;28;20063;-72
2021/05/04 11:45:14;;;;;;;9.70;4.45;;;16.60;64.40;;;;;;5059279;28;20068;-72
2021/05/04 11:47:45;;;;;;;5.55;3.88;;;16.50;67.60;;;;;;5059440;28;20025;-72
2021/05/04 11:50:15;;;;;;;5.55;4.03;;;16.60;67.40;;;;;;5059372;28;20078;-72
2021/05/04 11:52:43;;;;;;;4.90;3.40;;;16.70;65.90;;;;;;5059551;28;20025;-72
2021/05/04 11:55:15;;;;;;;6.30;3.95;;;16.80;64.60;;;;;;5059503;28;20158;-72
2021/05/04 11:57:43;;;;;;;4.85;4.15;;;16.90;64.90;;;;;;5058377;28;20036;-72
2021/05/04 12:00:12;;;;;;;5.80;4.38;;;16.90;62.50;;;;;;5059420;28;20025;-72
2021/05/04 12:02:38;;;;;;;4.93;3.38;;;16.90;63.60;;;;;;5059454;28;20098;-72
2021/05/04 12:05:05;;;;;;;5.57;3.20;;;16.80;66.30;;;;;;5059268;28;20108;-72
2021/05/04 12:07:34;;;;;;;7.22;3.90;;;16.90;70.00;;;;;;5058953;28;20035;-72
2021/05/04 12:10:01;;;;;;;8.68;3.72;;;17.00;64.40;;;;;;5058940;28;20341;-72
2021/05/04 12:12:59;;;;;;;7.15;3.63;;;17.00;67.10;;;;;;5058967;28;20025;-72
2021/05/04 12:15:37;;;;;;;6.43;2.90;;;16.90;64.40;;;;;;5058150;28;20036;-72
2021/05/04 12:18:17;;;;;;;5.55;3.35;;;17.00;66.50;;;;;;5057692;28;20045;-72
2021/05/04 12:20:48;;;;;;;7.20;3.75;;;17.00;65.80;;;;;;5059126;28;20029;-72
2021/05/04 12:23:34;;;;;;;4.28;3.58;;;16.90;64.20;;;;;;5058648;28;20121;-72
2021/05/04 12:26:05;;;;;;;9.15;4.25;;;16.80;63.90;;;;;;5058927;28;20037;-72
2021/05/04 12:28:46;;;;;;;5.60;3.17;;;16.70;62.30;;;;;;5058612;28;20037;-72
2021/05/04 12:31:24;;;;;;;5.85;3.30;;;16.60;67.80;;;;;;5058908;28;20029;-72
2021/05/04 12:33:53;;;;;;;7.03;3.90;;;16.30;66.00;;;;;;5058788;28;20364;-72
2021/05/04 12:36:42;;;;;;;8.40;3.70;;;16.20;65.70;;;;;;5058778;28;20025;-72
2021/05/04 12:39:24;;;;;;;5.35;3.17;;;16.10;70.70;;;;;;5058741;28;20045;-71
2021/05/04 12:41:51;;;;;;;7.15;3.85;;;16.10;70.90;;;;;;5058715;28;20021;-72
2021/05/04 12:44:25;;;;;;;6.25;3.53;;;16.10;69.00;;;;;;5058148;28;20040;-72
2021/05/04 12:47:00;;;;;;;5.35;3.00;;;16.10;68.90;;;;;;5058651;28;20055;-71
2021/05/04 12:49:40;;;;;;;17.25;4.95;;;16.00;71.60;;;;;;5058284;28;20036;-72
2021/05/04 12:52:14;;;;;;;5.38;3.58;;;15.90;67.40;;;;;;5058555;28;20287;-72
2021/05/04 12:54:43;;;;;;;8.32;3.42;;;15.90;71.00;;;;;;5058620;28;20064;-72
2021/05/04 12:57:29;;;;;;;6.25;3.50;;;15.90;69.50;;;;;;5058388;28;20317;-71
2021/05/04 12:59:55;;;;;;;5.50;3.20;;;15.90;70.00;;;;;;5058374;28;20029;-72
2021/05/04 13:02:31;;;;;;;10.52;3.72;;;16.00;73.00;;;;;;5058365;28;20043;-72
2021/05/04 13:05:07;;;;;;;4.95;3.20;;;16.10;73.30;;;;;;5058170;28;20043;-72
2021/05/04 13:07:40;;;;;;;7.28;3.47;;;16.20;71.40;;;;;;5058283;28;20421;-72